sensor_id;sensor_type;location;lat;lon;timestamp;P1;durP1;ratioP1;P2;durP2;ratioP2
2892;SDS011;1456;51.840;12.184;2023-12-14T00:01:44;5.30;;;5.00;;
2892;SDS011;1456;51.840;12.184;2023-12-14T00:04:11;1.97;;;1.97;;
2892;SDS011;1456;51.840;12.184;2023-12-14T00:06:37;2.90;;;2.70;;
2892;SDS011;1456;51.840;12.184;2023-12-14T00:09:03;3.77;;;3.67;;
2892;SDS011;1456;51.840;12.184;2023-12-14T00:11:28;1.00;;;1.00;;
2892;SDS011;1456;51.840;12.184;2023-12-14T00:13:54;8.20;;;3.13;;
2892;SDS011;1456;51.840;12.184;2023-12-14T00:16:20;2.50;;;2.50;;
2892;SDS011;1456;51.840;12.184;2023-12-14T00:18:46;4.53;;;4.33;;
2892;SDS011;1456;51.840;12.184;2023-12-14T00:21:12;3.13;;;1.87;;
2892;SDS011;1456;51.840;12.184;2023-12-14T00:23:37;4.93;;;4.60;;
2892;SDS011;1456;51.840;12.184;2023-12-14T00:26:03;1.97;;;1.97;;
2892;SDS011;1456;51.840;12.184;2023-12-14T00:28:29;0.97;;;0.97;;
2892;SDS011;1456;51.840;12.184;2023-12-14T00:30:54;0.50;;;0.50;;
2892;SDS011;1456;51.840;12.184;2023-12-14T00:33:20;2.93;;;2.87;;
2892;SDS011;1456;51.840;12.184;2023-12-14T00:35:45;3.53;;;3.50;;
2892;SDS011;1456;51.840;12.184;2023-12-14T00:38:11;2.90;;;2.90;;
2892;SDS011;1456;51.840;12.184;2023-12-14T00:40:37;2.67;;;2.67;;
2892;SDS011;1456;51.840;12.184;2023-12-14T00:43:02;1.77;;;1.67;;
2892;SDS011;1456;51.840;12.184;2023-12-14T00:45:28;3.93;;;3.83;;
2892;SDS011;1456;51.840;12.184;2023-12-14T00:47:54;2.13;;;2.03;;
2892;SDS011;1456;51.840;12.184;2023-12-14T00:50:19;2.03;;;2.03;;
2892;SDS011;1456;51.840;12.184;2023-12-14T00:52:45;4.03;;;3.80;;
2892;SDS011;1456;51.840;12.184;2023-12-14T00:55:11;1.67;;;1.67;;
2892;SDS011;1456;51.840;12.184;2023-12-14T00:57:36;6.40;;;2.83;;
2892;SDS011;1456;51.840;12.184;2023-12-14T01:00:02;2.63;;;2.63;;
2892;SDS011;1456;51.840;12.184;2023-12-14T01:02:28;3.43;;;3.03;;
2892;SDS011;1456;51.840;12.184;2023-12-14T01:04:54;2.10;;;2.00;;
2892;SDS011;1456;51.840;12.184;2023-12-14T01:07:20;3.33;;;3.23;;
2892;SDS011;1456;51.840;12.184;2023-12-14T01:09:45;1.90;;;1.90;;
2892;SDS011;1456;51.840;12.184;2023-12-14T01:12:11;1.17;;;1.17;;
2892;SDS011;1456;51.840;12.184;2023-12-14T01:14:36;2.50;;;2.40;;
2892;SDS011;1456;51.840;12.184;2023-12-14T01:17:02;1.70;;;1.70;;
2892;SDS011;1456;51.840;12.184;2023-12-14T01:19:28;2.00;;;2.00;;
2892;SDS011;1456;51.840;12.184;2023-12-14T01:21:53;3.07;;;3.07;;
2892;SDS011;1456;51.840;12.184;2023-12-14T01:24:20;2.67;;;2.50;;
2892;SDS011;1456;51.840;12.184;2023-12-14T01:26:46;2.03;;;2.03;;
2892;SDS011;1456;51.840;12.184;2023-12-14T01:29:11;1.93;;;1.93;;
2892;SDS011;1456;51.840;12.184;2023-12-14T01:31:37;2.10;;;2.10;;
2892;SDS011;1456;51.840;12.184;2023-12-14T01:34:02;0.57;;;0.57;;
2892;SDS011;1456;51.840;12.184;2023-12-14T01:36:28;2.53;;;2.43;;
2892;SDS011;1456;51.840;12.184;2023-12-14T01:38:54;2.83;;;2.83;;
2892;SDS011;1456;51.840;12.184;2023-12-14T01:41:19;1.90;;;1.90;;
2892;SDS011;1456;51.840;12.184;2023-12-14T01:43:45;3.23;;;2.50;;
2892;SDS011;1456;51.840;12.184;2023-12-14T01:46:11;1.70;;;1.60;;
2892;SDS011;1456;51.840;12.184;2023-12-14T01:48:38;2.97;;;2.77;;
2892;SDS011;1456;51.840;12.184;2023-12-14T01:51:03;2.03;;;1.97;;
2892;SDS011;1456;51.840;12.184;2023-12-14T01:53:30;1.50;;;1.50;;
2892;SDS011;1456;51.840;12.184;2023-12-14T01:55:56;4.30;;;4.07;;
2892;SDS011;1456;51.840;12.184;2023-12-14T01:58:21;2.70;;;2.60;;
2892;SDS011;1456;51.840;12.184;2023-12-14T02:03:46;2.97;;;2.97;;
2892;SDS011;1456;51.840;12.184;2023-12-14T02:06:15;3.57;;;3.37;;
2892;SDS011;1456;51.840;12.184;2023-12-14T02:08:41;2.17;;;2.17;;
2892;SDS011;1456;51.840;12.184;2023-12-14T02:11:06;3.10;;;3.00;;
2892;SDS011;1456;51.840;12.184;2023-12-14T02:13:32;3.57;;;3.37;;
2892;SDS011;1456;51.840;12.184;2023-12-14T02:15:58;1.47;;;0.80;;
2892;SDS011;1456;51.840;12.184;2023-12-14T02:18:24;3.90;;;2.07;;
2892;SDS011;1456;51.840;12.184;2023-12-14T02:20:49;3.00;;;2.80;;
2892;SDS011;1456;51.840;12.184;2023-12-14T02:23:15;1.80;;;1.80;;
2892;SDS011;1456;51.840;12.184;2023-12-14T02:25:41;1.70;;;1.70;;
2892;SDS011;1456;51.840;12.184;2023-12-14T02:28:06;3.97;;;3.77;;
2892;SDS011;1456;51.840;12.184;2023-12-14T02:30:33;3.10;;;3.00;;
2892;SDS011;1456;51.840;12.184;2023-12-14T02:32:59;2.30;;;2.30;;
2892;SDS011;1456;51.840;12.184;2023-12-14T02:35:25;2.60;;;2.60;;
2892;SDS011;1456;51.840;12.184;2023-12-14T02:37:50;4.27;;;2.97;;
2892;SDS011;1456;51.840;12.184;2023-12-14T02:40:16;1.70;;;1.70;;
2892;SDS011;1456;51.840;12.184;2023-12-14T02:42:41;5.60;;;3.27;;
2892;SDS011;1456;51.840;12.184;2023-12-14T02:45:07;4.43;;;2.53;;
2892;SDS011;1456;51.840;12.184;2023-12-14T02:47:33;2.30;;;2.30;;
2892;SDS011;1456;51.840;12.184;2023-12-14T02:49:59;3.00;;;2.70;;
2892;SDS011;1456;51.840;12.184;2023-12-14T02:52:25;2.23;;;2.23;;
2892;SDS011;1456;51.840;12.184;2023-12-14T02:54:51;3.30;;;3.20;;
2892;SDS011;1456;51.840;12.184;2023-12-14T02:57:16;1.77;;;1.77;;
2892;SDS011;1456;51.840;12.184;2023-12-14T02:59:42;2.93;;;2.90;;
2892;SDS011;1456;51.840;12.184;2023-12-14T03:02:08;4.57;;;2.60;;
2892;SDS011;1456;51.840;12.184;2023-12-14T03:04:34;3.57;;;3.10;;
2892;SDS011;1456;51.840;12.184;2023-12-14T03:07:02;2.20;;;2.20;;
2892;SDS011;1456;51.840;12.184;2023-12-14T03:09:28;2.80;;;2.60;;
2892;SDS011;1456;51.840;12.184;2023-12-14T03:11:54;5.30;;;4.90;;
2892;SDS011;1456;51.840;12.184;2023-12-14T03:14:20;2.93;;;2.70;;
2892;SDS011;1456;51.840;12.184;2023-12-14T03:16:46;3.27;;;3.17;;
2892;SDS011;1456;51.840;12.184;2023-12-14T03:19:13;1.80;;;1.50;;
2892;SDS011;1456;51.840;12.184;2023-12-14T03:21:38;1.93;;;1.93;;
2892;SDS011;1456;51.840;12.184;2023-12-14T03:24:04;2.40;;;2.30;;
2892;SDS011;1456;51.840;12.184;2023-12-14T03:26:30;2.47;;;1.57;;
2892;SDS011;1456;51.840;12.184;2023-12-14T03:28:55;3.87;;;3.57;;
2892;SDS011;1456;51.840;12.184;2023-12-14T03:31:21;3.33;;;3.23;;
2892;SDS011;1456;51.840;12.184;2023-12-14T03:33:47;3.97;;;3.80;;
2892;SDS011;1456;51.840;12.184;2023-12-14T03:36:12;3.53;;;3.37;;
2892;SDS011;1456;51.840;12.184;2023-12-14T03:38:38;2.47;;;2.37;;
2892;SDS011;1456;51.840;12.184;2023-12-14T03:41:04;2.87;;;2.77;;
2892;SDS011;1456;51.840;12.184;2023-12-14T03:43:29;4.03;;;3.80;;
2892;SDS011;1456;51.840;12.184;2023-12-14T03:45:55;2.70;;;2.70;;
2892;SDS011;1456;51.840;12.184;2023-12-14T03:48:21;3.43;;;3.00;;
2892;SDS011;1456;51.840;12.184;2023-12-14T03:50:46;3.67;;;3.33;;
2892;SDS011;1456;51.840;12.184;2023-12-14T03:53:12;4.20;;;3.90;;
2892;SDS011;1456;51.840;12.184;2023-12-14T03:55:37;2.40;;;2.40;;
2892;SDS011;1456;51.840;12.184;2023-12-14T03:58:03;7.23;;;3.20;;
2892;SDS011;1456;51.840;12.184;2023-12-14T04:00:29;2.03;;;2.03;;
2892;SDS011;1456;51.840;12.184;2023-12-14T04:02:54;1.93;;;1.93;;
2892;SDS011;1456;51.840;12.184;2023-12-14T04:05:20;3.30;;;3.10;;
2892;SDS011;1456;51.840;12.184;2023-12-14T04:07:46;3.00;;;2.90;;
2892;SDS011;1456;51.840;12.184;2023-12-14T04:10:13;3.50;;;3.37;;
2892;SDS011;1456;51.840;12.184;2023-12-14T04:12:39;2.23;;;2.23;;
2892;SDS011;1456;51.840;12.184;2023-12-14T04:15:05;1.40;;;1.40;;
2892;SDS011;1456;51.840;12.184;2023-12-14T04:17:32;3.20;;;3.10;;
2892;SDS011;1456;51.840;12.184;2023-12-14T04:19:58;1.93;;;1.93;;
2892;SDS011;1456;51.840;12.184;2023-12-14T04:22:25;3.27;;;3.07;;
2892;SDS011;1456;51.840;12.184;2023-12-14T04:24:51;2.23;;;2.23;;
2892;SDS011;1456;51.840;12.184;2023-12-14T04:27:17;2.03;;;2.03;;
2892;SDS011;1456;51.840;12.184;2023-12-14T04:29:42;1.83;;;1.83;;
2892;SDS011;1456;51.840;12.184;2023-12-14T04:32:08;2.50;;;2.50;;
2892;SDS011;1456;51.840;12.184;2023-12-14T04:34:34;4.57;;;4.17;;
2892;SDS011;1456;51.840;12.184;2023-12-14T04:37:00;1.30;;;1.30;;
2892;SDS011;1456;51.840;12.184;2023-12-14T04:39:26;6.67;;;6.47;;
2892;SDS011;1456;51.840;12.184;2023-12-14T04:41:52;2.93;;;2.77;;
2892;SDS011;1456;51.840;12.184;2023-12-14T04:44:19;1.87;;;1.87;;
2892;SDS011;1456;51.840;12.184;2023-12-14T04:46:46;2.10;;;2.00;;
2892;SDS011;1456;51.840;12.184;2023-12-14T04:49:15;3.30;;;3.20;;
2892;SDS011;1456;51.840;12.184;2023-12-14T04:51:41;1.90;;;1.90;;
2892;SDS011;1456;51.840;12.184;2023-12-14T04:54:07;4.87;;;4.17;;
2892;SDS011;1456;51.840;12.184;2023-12-14T04:56:33;1.93;;;1.93;;
2892;SDS011;1456;51.840;12.184;2023-12-14T04:58:59;1.73;;;1.73;;
2892;SDS011;1456;51.840;12.184;2023-12-14T05:01:25;1.53;;;1.53;;
2892;SDS011;1456;51.840;12.184;2023-12-14T05:03:53;1.20;;;1.20;;
2892;SDS011;1456;51.840;12.184;2023-12-14T05:06:20;4.27;;;4.13;;
2892;SDS011;1456;51.840;12.184;2023-12-14T05:08:46;2.17;;;2.17;;
2892;SDS011;1456;51.840;12.184;2023-12-14T05:11:12;3.00;;;2.90;;
2892;SDS011;1456;51.840;12.184;2023-12-14T05:13:38;2.40;;;2.40;;
2892;SDS011;1456;51.840;12.184;2023-12-14T05:16:03;3.67;;;3.67;;
2892;SDS011;1456;51.840;12.184;2023-12-14T05:18:29;3.00;;;3.00;;
2892;SDS011;1456;51.840;12.184;2023-12-14T05:20:55;2.60;;;2.50;;
2892;SDS011;1456;51.840;12.184;2023-12-14T05:23:21;3.20;;;3.10;;
2892;SDS011;1456;51.840;12.184;2023-12-14T05:25:46;3.73;;;3.53;;
2892;SDS011;1456;51.840;12.184;2023-12-14T05:28:12;3.70;;;3.50;;
2892;SDS011;1456;51.840;12.184;2023-12-14T05:30:38;4.07;;;3.97;;
2892;SDS011;1456;51.840;12.184;2023-12-14T05:33:04;4.90;;;4.40;;
2892;SDS011;1456;51.840;12.184;2023-12-14T05:35:29;3.33;;;3.23;;
2892;SDS011;1456;51.840;12.184;2023-12-14T05:37:55;2.63;;;2.53;;
2892;SDS011;1456;51.840;12.184;2023-12-14T05:40:21;3.47;;;3.03;;
2892;SDS011;1456;51.840;12.184;2023-12-14T05:42:47;5.47;;;5.37;;
2892;SDS011;1456;51.840;12.184;2023-12-14T05:45:12;5.97;;;5.87;;
2892;SDS011;1456;51.840;12.184;2023-12-14T05:47:38;3.53;;;3.53;;
2892;SDS011;1456;51.840;12.184;2023-12-14T05:50:04;4.67;;;4.50;;
2892;SDS011;1456;51.840;12.184;2023-12-14T05:52:30;4.43;;;4.33;;
2892;SDS011;1456;51.840;12.184;2023-12-14T05:54:56;6.27;;;6.17;;
2892;SDS011;1456;51.840;12.184;2023-12-14T05:57:22;4.10;;;4.00;;
2892;SDS011;1456;51.840;12.184;2023-12-14T05:59:49;3.47;;;3.47;;
2892;SDS011;1456;51.840;12.184;2023-12-14T06:02:17;2.90;;;2.90;;
2892;SDS011;1456;51.840;12.184;2023-12-14T06:04:43;4.90;;;4.83;;
2892;SDS011;1456;51.840;12.184;2023-12-14T06:07:08;6.70;;;6.50;;
2892;SDS011;1456;51.840;12.184;2023-12-14T06:09:34;5.30;;;5.30;;
2892;SDS011;1456;51.840;12.184;2023-12-14T06:12:03;6.80;;;6.67;;
2892;SDS011;1456;51.840;12.184;2023-12-14T06:14:30;9.77;;;9.40;;
2892;SDS011;1456;51.840;12.184;2023-12-14T06:16:56;7.23;;;7.00;;
2892;SDS011;1456;51.840;12.184;2023-12-14T06:19:23;4.70;;;4.70;;
2892;SDS011;1456;51.840;12.184;2023-12-14T06:21:49;6.37;;;6.17;;
2892;SDS011;1456;51.840;12.184;2023-12-14T06:24:15;5.70;;;5.40;;
2892;SDS011;1456;51.840;12.184;2023-12-14T06:26:41;6.00;;;5.90;;
2892;SDS011;1456;51.840;12.184;2023-12-14T06:29:10;6.30;;;6.20;;
2892;SDS011;1456;51.840;12.184;2023-12-14T06:31:37;6.77;;;6.67;;
2892;SDS011;1456;51.840;12.184;2023-12-14T06:34:03;6.30;;;6.27;;
2892;SDS011;1456;51.840;12.184;2023-12-14T06:36:32;7.23;;;7.03;;
2892;SDS011;1456;51.840;12.184;2023-12-14T06:38:59;6.10;;;6.00;;
2892;SDS011;1456;51.840;12.184;2023-12-14T06:41:26;7.17;;;6.60;;
2892;SDS011;1456;51.840;12.184;2023-12-14T06:43:53;9.60;;;9.20;;
2892;SDS011;1456;51.840;12.184;2023-12-14T06:46:19;8.17;;;8.07;;
2892;SDS011;1456;51.840;12.184;2023-12-14T06:48:47;8.10;;;8.00;;
2892;SDS011;1456;51.840;12.184;2023-12-14T06:51:13;8.97;;;8.87;;
2892;SDS011;1456;51.840;12.184;2023-12-14T06:53:42;7.90;;;7.80;;
2892;SDS011;1456;51.840;12.184;2023-12-14T06:56:08;8.60;;;8.13;;
2892;SDS011;1456;51.840;12.184;2023-12-14T06:58:36;9.10;;;9.00;;
2892;SDS011;1456;51.840;12.184;2023-12-14T07:01:03;8.70;;;8.50;;
2892;SDS011;1456;51.840;12.184;2023-12-14T07:03:28;7.13;;;7.03;;
2892;SDS011;1456;51.840;12.184;2023-12-14T07:05:54;8.03;;;7.93;;
2892;SDS011;1456;51.840;12.184;2023-12-14T07:08:20;8.30;;;8.20;;
2892;SDS011;1456;51.840;12.184;2023-12-14T07:10:45;9.00;;;8.50;;
2892;SDS011;1456;51.840;12.184;2023-12-14T07:13:11;7.20;;;7.10;;
2892;SDS011;1456;51.840;12.184;2023-12-14T07:15:36;8.47;;;8.37;;
2892;SDS011;1456;51.840;12.184;2023-12-14T07:18:02;7.53;;;7.43;;
2892;SDS011;1456;51.840;12.184;2023-12-14T07:20:28;8.50;;;8.20;;
2892;SDS011;1456;51.840;12.184;2023-12-14T07:22:53;7.80;;;7.60;;
2892;SDS011;1456;51.840;12.184;2023-12-14T07:25:19;8.30;;;8.20;;
2892;SDS011;1456;51.840;12.184;2023-12-14T07:27:45;7.33;;;7.23;;
2892;SDS011;1456;51.840;12.184;2023-12-14T07:30:11;5.37;;;5.27;;
2892;SDS011;1456;51.840;12.184;2023-12-14T07:32:38;6.30;;;5.97;;
2892;SDS011;1456;51.840;12.184;2023-12-14T07:35:03;5.07;;;5.03;;
2892;SDS011;1456;51.840;12.184;2023-12-14T07:37:30;4.83;;;4.77;;
2892;SDS011;1456;51.840;12.184;2023-12-14T07:39:55;5.03;;;4.97;;
2892;SDS011;1456;51.840;12.184;2023-12-14T07:42:21;5.63;;;5.43;;
2892;SDS011;1456;51.840;12.184;2023-12-14T07:44:47;5.73;;;5.60;;
2892;SDS011;1456;51.840;12.184;2023-12-14T07:47:13;6.73;;;6.33;;
2892;SDS011;1456;51.840;12.184;2023-12-14T07:49:38;5.73;;;5.40;;
2892;SDS011;1456;51.840;12.184;2023-12-14T07:52:04;6.20;;;5.90;;
2892;SDS011;1456;51.840;12.184;2023-12-14T07:54:30;5.60;;;5.40;;
2892;SDS011;1456;51.840;12.184;2023-12-14T07:56:56;4.87;;;4.67;;
2892;SDS011;1456;51.840;12.184;2023-12-14T07:59:22;4.20;;;4.10;;
2892;SDS011;1456;51.840;12.184;2023-12-14T08:01:47;9.80;;;4.27;;
2892;SDS011;1456;51.840;12.184;2023-12-14T08:04:13;5.40;;;5.30;;
2892;SDS011;1456;51.840;12.184;2023-12-14T08:06:39;4.47;;;4.33;;
2892;SDS011;1456;51.840;12.184;2023-12-14T08:09:06;5.00;;;4.87;;
2892;SDS011;1456;51.840;12.184;2023-12-14T08:11:32;5.87;;;5.47;;
2892;SDS011;1456;51.840;12.184;2023-12-14T08:13:58;5.47;;;5.27;;
2892;SDS011;1456;51.840;12.184;2023-12-14T08:16:24;4.87;;;4.60;;
2892;SDS011;1456;51.840;12.184;2023-12-14T08:18:50;3.33;;;3.33;;
2892;SDS011;1456;51.840;12.184;2023-12-14T08:21:16;4.43;;;4.27;;
2892;SDS011;1456;51.840;12.184;2023-12-14T08:23:43;3.67;;;3.60;;
2892;SDS011;1456;51.840;12.184;2023-12-14T08:26:09;3.97;;;3.90;;
2892;SDS011;1456;51.840;12.184;2023-12-14T08:28:38;4.07;;;3.97;;
2892;SDS011;1456;51.840;12.184;2023-12-14T08:31:04;4.50;;;4.40;;
2892;SDS011;1456;51.840;12.184;2023-12-14T08:33:30;5.37;;;3.53;;
2892;SDS011;1456;51.840;12.184;2023-12-14T08:35:55;6.17;;;5.93;;
2892;SDS011;1456;51.840;12.184;2023-12-14T08:38:21;3.10;;;3.10;;
2892;SDS011;1456;51.840;12.184;2023-12-14T08:40:48;3.40;;;3.40;;
2892;SDS011;1456;51.840;12.184;2023-12-14T08:43:14;4.23;;;4.23;;
2892;SDS011;1456;51.840;12.184;2023-12-14T08:45:40;2.77;;;2.77;;
2892;SDS011;1456;51.840;12.184;2023-12-14T08:48:05;3.17;;;3.07;;
2892;SDS011;1456;51.840;12.184;2023-12-14T08:50:31;5.07;;;4.87;;
2892;SDS011;1456;51.840;12.184;2023-12-14T08:52:57;4.10;;;4.10;;
2892;SDS011;1456;51.840;12.184;2023-12-14T08:55:25;3.97;;;3.97;;
2892;SDS011;1456;51.840;12.184;2023-12-14T08:57:52;3.17;;;3.17;;
2892;SDS011;1456;51.840;12.184;2023-12-14T09:00:19;2.50;;;2.50;;
2892;SDS011;1456;51.840;12.184;2023-12-14T09:02:45;4.17;;;4.07;;
2892;SDS011;1456;51.840;12.184;2023-12-14T09:05:13;2.47;;;2.37;;
2892;SDS011;1456;51.840;12.184;2023-12-14T09:07:41;3.90;;;3.70;;
2892;SDS011;1456;51.840;12.184;2023-12-14T09:10:06;1.83;;;1.83;;
2892;SDS011;1456;51.840;12.184;2023-12-14T09:12:33;3.43;;;3.43;;
2892;SDS011;1456;51.840;12.184;2023-12-14T09:14:59;2.00;;;2.00;;
2892;SDS011;1456;51.840;12.184;2023-12-14T09:17:25;2.67;;;2.47;;
2892;SDS011;1456;51.840;12.184;2023-12-14T09:19:51;2.37;;;2.30;;
2892;SDS011;1456;51.840;12.184;2023-12-14T09:22:17;5.90;;;3.63;;
2892;SDS011;1456;51.840;12.184;2023-12-14T09:24:43;3.07;;;2.97;;
2892;SDS011;1456;51.840;12.184;2023-12-14T09:27:08;4.47;;;4.37;;
2892;SDS011;1456;51.840;12.184;2023-12-14T09:29:34;1.70;;;1.70;;
2892;SDS011;1456;51.840;12.184;2023-12-14T09:32:00;2.60;;;2.50;;
2892;SDS011;1456;51.840;12.184;2023-12-14T09:34:25;3.13;;;2.83;;
2892;SDS011;1456;51.840;12.184;2023-12-14T09:36:51;7.53;;;2.43;;
2892;SDS011;1456;51.840;12.184;2023-12-14T09:39:17;2.73;;;2.63;;
2892;SDS011;1456;51.840;12.184;2023-12-14T09:41:45;1.87;;;1.87;;
2892;SDS011;1456;51.840;12.184;2023-12-14T09:44:12;3.93;;;3.73;;
2892;SDS011;1456;51.840;12.184;2023-12-14T09:46:37;1.80;;;1.80;;
2892;SDS011;1456;51.840;12.184;2023-12-14T09:49:04;2.90;;;2.90;;
2892;SDS011;1456;51.840;12.184;2023-12-14T09:51:30;6.43;;;4.13;;
2892;SDS011;1456;51.840;12.184;2023-12-14T09:53:56;2.60;;;2.60;;
2892;SDS011;1456;51.840;12.184;2023-12-14T09:56:25;3.77;;;3.77;;
2892;SDS011;1456;51.840;12.184;2023-12-14T09:58:52;2.70;;;2.60;;
2892;SDS011;1456;51.840;12.184;2023-12-14T10:01:22;3.87;;;3.77;;
2892;SDS011;1456;51.840;12.184;2023-12-14T10:03:49;1.90;;;1.90;;
2892;SDS011;1456;51.840;12.184;2023-12-14T10:06:15;4.10;;;4.00;;
2892;SDS011;1456;51.840;12.184;2023-12-14T10:08:42;13.13;;;2.47;;
2892;SDS011;1456;51.840;12.184;2023-12-14T10:11:20;1.67;;;1.57;;
2892;SDS011;1456;51.840;12.184;2023-12-14T10:13:46;6.43;;;3.50;;
2892;SDS011;1456;51.840;12.184;2023-12-14T10:16:11;4.43;;;3.40;;
2892;SDS011;1456;51.840;12.184;2023-12-14T10:18:37;2.73;;;2.73;;
2892;SDS011;1456;51.840;12.184;2023-12-14T10:21:05;4.40;;;4.20;;
2892;SDS011;1456;51.840;12.184;2023-12-14T10:23:33;2.73;;;2.60;;
2892;SDS011;1456;51.840;12.184;2023-12-14T10:26:00;6.73;;;3.07;;
2892;SDS011;1456;51.840;12.184;2023-12-14T10:28:25;2.83;;;2.73;;
2892;SDS011;1456;51.840;12.184;2023-12-14T10:30:52;9.63;;;3.00;;
2892;SDS011;1456;51.840;12.184;2023-12-14T10:33:18;3.67;;;3.40;;
2892;SDS011;1456;51.840;12.184;2023-12-14T10:35:43;3.27;;;3.27;;
2892;SDS011;1456;51.840;12.184;2023-12-14T10:38:11;5.37;;;5.13;;
2892;SDS011;1456;51.840;12.184;2023-12-14T10:40:38;3.90;;;3.10;;
2892;SDS011;1456;51.840;12.184;2023-12-14T10:43:08;5.50;;;5.30;;
2892;SDS011;1456;51.840;12.184;2023-12-14T10:45:35;5.57;;;5.10;;
2892;SDS011;1456;51.840;12.184;2023-12-14T10:48:02;2.80;;;2.70;;
2892;SDS011;1456;51.840;12.184;2023-12-14T10:50:29;3.20;;;3.10;;
2892;SDS011;1456;51.840;12.184;2023-12-14T10:52:56;3.33;;;3.23;;
2892;SDS011;1456;51.840;12.184;2023-12-14T10:55:25;2.67;;;2.67;;
2892;SDS011;1456;51.840;12.184;2023-12-14T10:57:55;5.50;;;5.10;;
2892;SDS011;1456;51.840;12.184;2023-12-14T11:00:23;3.53;;;3.43;;
2892;SDS011;1456;51.840;12.184;2023-12-14T11:02:48;4.97;;;4.87;;
2892;SDS011;1456;51.840;12.184;2023-12-14T11:05:15;7.10;;;6.70;;
2892;SDS011;1456;51.840;12.184;2023-12-14T11:07:43;3.63;;;3.43;;
2892;SDS011;1456;51.840;12.184;2023-12-14T11:10:13;3.63;;;3.50;;
2892;SDS011;1456;51.840;12.184;2023-12-14T11:12:50;2.73;;;2.73;;
2892;SDS011;1456;51.840;12.184;2023-12-14T11:15:30;11.73;;;4.00;;
2892;SDS011;1456;51.840;12.184;2023-12-14T11:18:32;4.07;;;3.97;;
2892;SDS011;1456;51.840;12.184;2023-12-14T11:20:52;1.80;;;1.80;;
2892;SDS011;1456;51.840;12.184;2023-12-14T11:26:06;3.43;;;3.33;;
2892;SDS011;1456;51.840;12.184;2023-12-14T11:28:35;3.70;;;3.50;;
2892;SDS011;1456;51.840;12.184;2023-12-14T11:31:02;9.93;;;6.20;;
2892;SDS011;1456;51.840;12.184;2023-12-14T11:33:34;2.80;;;2.70;;
2892;SDS011;1456;51.840;12.184;2023-12-14T11:36:01;3.90;;;3.77;;
2892;SDS011;1456;51.840;12.184;2023-12-14T11:38:30;2.50;;;2.40;;
2892;SDS011;1456;51.840;12.184;2023-12-14T11:40:57;3.07;;;2.97;;
2892;SDS011;1456;51.840;12.184;2023-12-14T11:43:24;3.03;;;3.03;;
2892;SDS011;1456;51.840;12.184;2023-12-14T11:45:51;3.27;;;3.17;;
2892;SDS011;1456;51.840;12.184;2023-12-14T11:48:19;3.57;;;3.50;;
2892;SDS011;1456;51.840;12.184;2023-12-14T11:50:45;6.20;;;5.90;;
2892;SDS011;1456;51.840;12.184;2023-12-14T11:53:12;5.33;;;5.13;;
2892;SDS011;1456;51.840;12.184;2023-12-14T11:55:39;5.57;;;5.43;;
2892;SDS011;1456;51.840;12.184;2023-12-14T11:58:07;2.93;;;2.93;;
2892;SDS011;1456;51.840;12.184;2023-12-14T12:00:33;10.83;;;5.23;;
2892;SDS011;1456;51.840;12.184;2023-12-14T12:03:19;4.60;;;4.40;;
2892;SDS011;1456;51.840;12.184;2023-12-14T12:05:49;5.17;;;4.90;;
2892;SDS011;1456;51.840;12.184;2023-12-14T12:08:18;5.13;;;4.93;;
2892;SDS011;1456;51.840;12.184;2023-12-14T12:10:45;2.30;;;2.30;;
2892;SDS011;1456;51.840;12.184;2023-12-14T12:13:12;4.93;;;4.73;;
2892;SDS011;1456;51.840;12.184;2023-12-14T12:15:39;3.87;;;3.53;;
2892;SDS011;1456;51.840;12.184;2023-12-14T12:18:06;5.50;;;5.30;;
2892;SDS011;1456;51.840;12.184;2023-12-14T12:20:33;3.43;;;3.33;;
2892;SDS011;1456;51.840;12.184;2023-12-14T12:22:59;2.70;;;2.70;;
2892;SDS011;1456;51.840;12.184;2023-12-14T12:25:25;3.20;;;3.10;;
2892;SDS011;1456;51.840;12.184;2023-12-14T12:27:52;6.77;;;6.40;;
2892;SDS011;1456;51.840;12.184;2023-12-14T12:30:21;8.63;;;5.37;;
2892;SDS011;1456;51.840;12.184;2023-12-14T12:32:48;2.37;;;2.37;;
2892;SDS011;1456;51.840;12.184;2023-12-14T12:35:14;3.30;;;3.30;;
2892;SDS011;1456;51.840;12.184;2023-12-14T12:37:40;5.53;;;5.33;;
2892;SDS011;1456;51.840;12.184;2023-12-14T12:40:06;5.40;;;5.10;;
2892;SDS011;1456;51.840;12.184;2023-12-14T12:42:32;6.07;;;5.97;;
2892;SDS011;1456;51.840;12.184;2023-12-14T12:44:58;5.13;;;4.93;;
2892;SDS011;1456;51.840;12.184;2023-12-14T12:47:24;4.97;;;4.67;;
2892;SDS011;1456;51.840;12.184;2023-12-14T12:49:50;4.70;;;4.60;;
2892;SDS011;1456;51.840;12.184;2023-12-14T12:52:15;6.87;;;6.67;;
2892;SDS011;1456;51.840;12.184;2023-12-14T12:54:41;6.57;;;6.13;;
2892;SDS011;1456;51.840;12.184;2023-12-14T12:57:06;11.00;;;2.97;;
2892;SDS011;1456;51.840;12.184;2023-12-14T12:59:32;3.87;;;3.77;;
2892;SDS011;1456;51.840;12.184;2023-12-14T13:01:58;6.63;;;6.37;;
2892;SDS011;1456;51.840;12.184;2023-12-14T13:04:24;3.93;;;3.73;;
2892;SDS011;1456;51.840;12.184;2023-12-14T13:06:51;6.30;;;6.20;;
2892;SDS011;1456;51.840;12.184;2023-12-14T13:09:17;8.90;;;5.13;;
2892;SDS011;1456;51.840;12.184;2023-12-14T13:11:44;4.60;;;3.77;;
2892;SDS011;1456;51.840;12.184;2023-12-14T13:14:10;3.77;;;3.73;;
2892;SDS011;1456;51.840;12.184;2023-12-14T13:16:37;3.67;;;3.53;;
2892;SDS011;1456;51.840;12.184;2023-12-14T13:19:04;5.90;;;5.70;;
2892;SDS011;1456;51.840;12.184;2023-12-14T13:21:31;5.10;;;4.73;;
2892;SDS011;1456;51.840;12.184;2023-12-14T13:23:59;5.57;;;5.00;;
2892;SDS011;1456;51.840;12.184;2023-12-14T13:26:25;4.13;;;4.03;;
2892;SDS011;1456;51.840;12.184;2023-12-14T13:28:51;3.73;;;3.60;;
2892;SDS011;1456;51.840;12.184;2023-12-14T13:31:17;4.17;;;3.93;;
2892;SDS011;1456;51.840;12.184;2023-12-14T13:33:43;7.73;;;4.03;;
2892;SDS011;1456;51.840;12.184;2023-12-14T13:36:10;4.63;;;4.53;;
2892;SDS011;1456;51.840;12.184;2023-12-14T13:38:36;4.67;;;4.47;;
2892;SDS011;1456;51.840;12.184;2023-12-14T13:41:02;4.00;;;3.90;;
2892;SDS011;1456;51.840;12.184;2023-12-14T13:43:29;3.13;;;3.13;;
2892;SDS011;1456;51.840;12.184;2023-12-14T13:45:55;4.83;;;4.60;;
2892;SDS011;1456;51.840;12.184;2023-12-14T13:48:24;6.33;;;4.90;;
2892;SDS011;1456;51.840;12.184;2023-12-14T13:50:50;5.50;;;5.20;;
2892;SDS011;1456;51.840;12.184;2023-12-14T13:53:16;6.60;;;6.10;;
2892;SDS011;1456;51.840;12.184;2023-12-14T13:55:41;5.00;;;4.80;;
2892;SDS011;1456;51.840;12.184;2023-12-14T13:58:07;33.37;;;5.70;;
2892;SDS011;1456;51.840;12.184;2023-12-14T14:00:33;4.73;;;4.33;;
2892;SDS011;1456;51.840;12.184;2023-12-14T14:03:00;4.67;;;4.57;;
2892;SDS011;1456;51.840;12.184;2023-12-14T14:05:26;3.10;;;3.10;;
2892;SDS011;1456;51.840;12.184;2023-12-14T14:07:52;3.77;;;3.67;;
2892;SDS011;1456;51.840;12.184;2023-12-14T14:10:18;4.63;;;4.53;;
2892;SDS011;1456;51.840;12.184;2023-12-14T14:12:45;6.50;;;6.20;;
2892;SDS011;1456;51.840;12.184;2023-12-14T14:15:11;3.10;;;3.10;;
2892;SDS011;1456;51.840;12.184;2023-12-14T14:17:37;4.77;;;4.67;;
2892;SDS011;1456;51.840;12.184;2023-12-14T14:20:03;2.77;;;2.70;;
2892;SDS011;1456;51.840;12.184;2023-12-14T14:22:30;3.53;;;3.43;;
2892;SDS011;1456;51.840;12.184;2023-12-14T14:24:55;3.63;;;3.57;;
2892;SDS011;1456;51.840;12.184;2023-12-14T14:27:22;2.33;;;2.33;;
2892;SDS011;1456;51.840;12.184;2023-12-14T14:29:48;7.27;;;6.80;;
2892;SDS011;1456;51.840;12.184;2023-12-14T14:32:14;4.53;;;4.53;;
2892;SDS011;1456;51.840;12.184;2023-12-14T14:34:40;7.43;;;5.40;;
2892;SDS011;1456;51.840;12.184;2023-12-14T14:37:07;8.73;;;4.80;;
2892;SDS011;1456;51.840;12.184;2023-12-14T14:39:33;7.23;;;6.53;;
2892;SDS011;1456;51.840;12.184;2023-12-14T14:41:58;8.33;;;7.70;;
2892;SDS011;1456;51.840;12.184;2023-12-14T14:44:24;5.67;;;5.33;;
2892;SDS011;1456;51.840;12.184;2023-12-14T14:46:50;6.70;;;6.40;;
2892;SDS011;1456;51.840;12.184;2023-12-14T14:49:16;3.60;;;3.60;;
2892;SDS011;1456;51.840;12.184;2023-12-14T14:51:42;3.60;;;3.50;;
2892;SDS011;1456;51.840;12.184;2023-12-14T14:54:08;5.47;;;5.33;;
2892;SDS011;1456;51.840;12.184;2023-12-14T14:56:34;5.53;;;5.43;;
2892;SDS011;1456;51.840;12.184;2023-12-14T14:59:00;8.60;;;8.30;;
2892;SDS011;1456;51.840;12.184;2023-12-14T15:01:25;6.30;;;6.10;;